createdAt,value
2022-11-16T00:06:45.351Z,0.00
2022-11-16T00:18:45.829Z,0.59
2022-11-16T00:30:46.267Z,0.09
2022-11-16T00:42:46.711Z,0.75
2022-11-16T00:54:47.189Z,0.56
2022-11-16T01:06:47.647Z,0.90
2022-11-16T01:18:48.503Z,1.13
2022-11-16T01:30:48.535Z,0.94
2022-11-16T01:42:49.007Z,0.67
2022-11-16T01:54:49.453Z,0.06
2022-11-16T02:06:49.971Z,0.40
2022-11-16T02:18:50.330Z,0.26
2022-11-16T02:30:50.893Z,0.04
2022-11-16T02:42:51.251Z,0.01
2022-11-16T02:54:51.698Z,0.11
2022-11-16T03:06:52.189Z,0.55
2022-11-16T03:18:52.629Z,0.00
2022-11-16T03:30:53.051Z,0.00
2022-11-16T03:42:53.503Z,0.11
2022-11-16T03:54:53.968Z,0.01
2022-11-16T04:06:54.481Z,0.00
2022-11-16T04:18:54.842Z,0.07
2022-11-16T04:30:55.307Z,0.00
2022-11-16T04:42:55.782Z,0.11
2022-11-16T04:54:56.267Z,0.01
2022-11-16T05:06:56.839Z,0.54
2022-11-16T05:18:57.137Z,0.46
2022-11-16T05:30:57.593Z,0.28
2022-11-16T05:42:58.043Z,0.37
2022-11-16T05:54:58.493Z,0.65
2022-11-16T06:06:59.275Z,0.00
2022-11-16T06:18:59.421Z,0.00
2022-11-16T06:30:59.885Z,0.00
2022-11-16T06:43:00.270Z,0.00
2022-11-16T06:55:00.764Z,0.00
2022-11-16T07:07:01.232Z,0.20
2022-11-16T07:19:01.665Z,0.12
2022-11-16T07:31:02.100Z,0.55
2022-11-16T07:43:02.538Z,0.40
2022-11-16T07:55:02.990Z,0.03
2022-11-16T08:07:03.498Z,0.25
2022-11-16T08:19:03.881Z,0.73
2022-11-16T08:31:04.341Z,0.51
2022-11-16T08:43:04.795Z,0.57
2022-11-16T08:55:05.276Z,0.86
2022-11-16T09:07:05.731Z,0.08
2022-11-16T09:19:06.183Z,1.40
2022-11-16T09:31:06.638Z,0.69
2022-11-16T09:43:07.055Z,0.75
2022-11-16T09:55:10.793Z,1.52
2022-11-16T10:07:08.077Z,1.55
2022-11-16T10:19:08.419Z,1.24
2022-11-16T10:31:08.910Z,0.94
2022-11-16T10:43:09.348Z,1.99
2022-11-16T10:55:09.797Z,1.08
2022-11-16T11:07:10.294Z,2.48
2022-11-16T11:19:10.725Z,1.12
2022-11-16T11:31:11.118Z,0.77
2022-11-16T11:43:14.946Z,1.37
2022-11-16T11:55:12.090Z,1.34
2022-11-16T12:07:12.522Z,1.99
2022-11-16T12:19:12.986Z,0.99
2022-11-16T12:31:13.418Z,1.36
2022-11-16T12:43:13.841Z,0.40
2022-11-16T12:55:27.119Z,1.09
2022-11-16T13:07:14.881Z,0.44
2022-11-16T13:19:15.243Z,0.82
2022-11-16T13:31:15.693Z,1.11
2022-11-16T13:43:16.121Z,0.34
2022-11-16T13:55:16.585Z,1.13
2022-11-16T14:07:17.100Z,1.46
2022-11-16T14:19:17.494Z,1.07
2022-11-16T14:31:17.939Z,1.09
2022-11-16T14:43:18.404Z,0.38
2022-11-16T14:55:18.852Z,0.48
2022-11-16T15:07:19.491Z,0.03
2022-11-16T15:31:20.208Z,0.10
2022-11-16T15:43:20.763Z,0.24
2022-11-16T15:55:21.191Z,0.44
2022-11-16T16:07:21.591Z,0.06
2022-11-16T16:19:22.026Z,0.09
2022-11-16T16:31:22.439Z,0.00
2022-11-16T16:43:22.889Z,0.04
2022-11-16T16:55:23.401Z,0.00
2022-11-16T17:07:23.964Z,0.05
2022-11-16T17:19:24.268Z,0.14
2022-11-16T17:31:24.778Z,0.50
2022-11-16T17:43:25.176Z,0.23
2022-11-16T17:55:25.635Z,0.07
2022-11-16T18:07:26.122Z,0.16
2022-11-16T18:19:26.552Z,0.11
2022-11-16T18:31:27.015Z,0.14
2022-11-16T18:43:27.443Z,0.20
2022-11-16T18:55:27.900Z,0.00
2022-11-16T19:07:28.403Z,0.00
2022-11-16T19:19:28.807Z,0.00
2022-11-16T19:31:29.298Z,0.00
2022-11-16T19:43:29.723Z,0.05
2022-11-16T19:55:30.143Z,0.05
2022-11-16T20:07:30.681Z,0.03
2022-11-16T20:19:31.066Z,0.00
2022-11-16T20:31:31.490Z,0.00
2022-11-16T20:43:32.388Z,0.04
2022-11-16T20:55:32.473Z,0.98
2022-11-16T21:07:32.973Z,0.40
2022-11-16T21:19:33.312Z,0.21
2022-11-16T21:31:33.772Z,0.73
2022-11-16T21:43:34.458Z,0.37
2022-11-16T21:55:34.682Z,0.01
2022-11-16T22:07:35.194Z,0.00
2022-11-16T22:19:35.559Z,0.08
2022-11-16T22:31:36.038Z,0.00
2022-11-16T22:43:36.746Z,0.01
2022-11-16T22:55:36.920Z,0.09
2022-11-16T23:07:37.485Z,0.02
2022-11-16T23:19:37.881Z,0.00
2022-11-16T23:31:38.321Z,0.04
2022-11-16T23:43:38.739Z,0.00
2022-11-16T23:55:39.214Z,0.06
